Time;durP1;ratioP1;P1;durP2;ratioP2;P2;SDS_P1;SDS_P2;PMS_P1;PMS_P2;Temp;Humidity;BMP_temperature;BMP_pressure;BME280_temperature;BME280_humidity;BME280_pressure;Samples;Min_cycle;Max_cycle;Signal;HPM_P1;HPM_P2
2023/08/02 00:00:05;;;;;;;8.10;2.90;;;;;;;17.14;100.00;98996.45;177821;1259;44747;-82
2023/08/02 00:04:28;;;;;;;7.70;1.80;;;;;;;17.12;100.00;98995.08;178051;1262;46179;-82
2023/08/02 00:08:32;;;;;;;5.40;2.20;;;;;;;17.07;100.00;98993.90;177765;1259;48010;-82
2023/08/02 00:12:36;;;;;;;6.90;2.80;;;;;;;17.01;100.00;98994.58;177498;1259;46037;-83
2023/08/02 00:16:39;;;;;;;11.30;2.30;;;;;;;16.98;100.00;98997.70;178023;1260;57925;-82
2023/08/02 00:20:44;;;;;;;8.10;2.60;;;;;;;16.97;100.00;99001.48;177615;1258;46061;-83
2023/08/02 00:24:47;;;;;;;3.90;2.00;;;;;;;16.92;100.00;99003.84;178046;1258;46003;-83
2023/08/02 00:28:50;;;;;;;4.10;1.40;;;;;;;16.89;100.00;99008.03;177972;1259;46115;-83
2023/08/02 00:32:53;;;;;;;6.90;2.80;;;;;;;16.83;100.00;99006.65;177801;1259;46026;-83
2023/08/02 00:36:56;;;;;;;6.40;2.40;;;;;;;16.76;100.00;99008.58;177432;1258;59237;-82
2023/08/02 00:41:06;;;;;;;7.50;2.70;;;;;;;16.72;100.00;99009.52;177463;1262;46036;-83
2023/08/02 00:45:10;;;;;;;6.20;2.60;;;;;;;16.69;100.00;99006.61;177743;1258;46117;-82
2023/08/02 00:49:13;;;;;;;11.10;2.70;;;;;;;16.61;100.00;99002.63;177657;1259;46062;-83
2023/08/02 00:53:16;;;;;;;6.60;3.00;;;;;;;16.50;100.00;99009.05;177667;1259;46116;-82
2023/08/02 00:57:20;;;;;;;11.40;2.60;;;;;;;16.39;100.00;99012.40;177780;1262;59544;-83
2023/08/02 01:01:24;;;;;;;6.00;2.20;;;;;;;16.32;100.00;99018.83;178022;1258;45986;-82
2023/08/02 01:05:33;;;;;;;4.50;2.70;;;;;;;16.31;100.00;99013.80;177988;1259;45994;-83
2023/08/02 01:09:50;;;;;;;11.50;2.50;;;;;;;16.30;100.00;99017.84;177637;1258;46056;-83
2023/08/02 01:13:56;;;;;;;7.00;2.20;;;;;;;16.31;100.00;99019.17;177792;1260;46230;-82
2023/08/02 01:18:01;;;;;;;5.10;2.50;;;;;;;16.29;100.00;99021.30;177969;1259;60276;-82
2023/08/02 01:22:05;;;;;;;4.40;2.20;;;;;;;16.29;100.00;99023.00;177550;1256;46033;-83
2023/08/02 01:26:08;;;;;;;12.30;2.50;;;;;;;16.25;100.00;99020.41;177102;1260;46099;-83
2023/08/02 01:30:14;;;;;;;5.00;2.50;;;;;;;16.24;100.00;99031.14;177804;1259;45982;-83
2023/08/02 01:34:18;;;;;;;8.30;2.30;;;;;;;16.17;100.00;99028.27;177768;1259;45999;-82
2023/08/02 01:38:21;;;;;;;7.60;2.90;;;;;;;16.14;100.00;99032.02;177506;1262;57983;-83
2023/08/02 01:42:24;;;;;;;5.80;2.10;;;;;;;16.11;100.00;99029.84;177439;1259;45991;-83
2023/08/02 01:46:27;;;;;;;4.00;2.30;;;;;;;16.09;100.00;99031.67;177289;1256;45991;-83
2023/08/02 01:50:30;;;;;;;3.20;2.40;;;;;;;16.09;100.00;99034.72;177532;1259;46030;-83
2023/08/02 01:54:33;;;;;;;3.50;1.50;;;;;;;16.07;100.00;99037.44;177352;1262;46013;-83
2023/08/02 01:58:36;;;;;;;6.00;2.10;;;;;;;16.08;100.00;99034.72;177310;1259;59323;-83
2023/08/02 02:02:39;;;;;;;3.30;1.90;;;;;;;16.12;100.00;99034.38;177499;1259;46130;-82
2023/08/02 02:06:43;;;;;;;3.20;1.80;;;;;;;16.14;100.00;99028.42;177588;1262;46117;-83
2023/08/02 02:10:52;;;;;;;4.00;2.00;;;;;;;16.16;100.00;99031.39;177442;1258;46158;-83
2023/08/02 02:14:55;;;;;;;5.50;2.20;;;;;;;16.18;100.00;99027.70;177516;1257;45972;-84
2023/08/02 02:18:58;;;;;;;4.90;2.70;;;;;;;16.16;100.00;99028.48;177984;1256;58326;-82
2023/08/02 02:23:01;;;;;;;6.80;2.80;;;;;;;16.17;100.00;99035.79;177964;1258;45984;-83
2023/08/02 02:27:05;;;;;;;3.40;2.30;;;;;;;16.20;100.00;99036.77;177442;1259;46073;-83
2023/08/02 02:31:08;;;;;;;3.60;1.10;;;;;;;16.24;100.00;99037.50;177451;1258;46011;-82
2023/08/02 02:35:14;;;;;;;4.50;2.80;;;;;;;16.29;100.00;99037.48;177549;1261;46124;-83
2023/08/02 02:39:17;;;;;;;4.20;2.70;;;;;;;16.32;100.00;99042.08;178075;1260;59262;-82
2023/08/02 02:43:21;;;;;;;2.20;1.60;;;;;;;16.28;100.00;99046.63;177641;1258;46167;-83
2023/08/02 02:47:24;;;;;;;6.60;2.70;;;;;;;16.23;100.00;99048.92;178095;1259;46156;-82
2023/08/02 02:51:27;;;;;;;4.10;1.80;;;;;;;16.21;100.00;99050.80;177439;1262;46127;-82
2023/08/02 02:55:30;;;;;;;3.00;1.70;;;;;;;16.24;100.00;99053.84;178419;1260;46112;-82
2023/08/02 02:59:33;;;;;;;3.50;1.80;;;;;;;16.28;100.00;99053.70;178284;1258;58031;-82
2023/08/02 03:03:36;;;;;;;2.70;1.90;;;;;;;16.31;100.00;99058.52;178157;1259;46173;-82
2023/08/02 03:07:39;;;;;;;4.30;1.70;;;;;;;16.31;100.00;99058.13;178477;1262;46102;-82
2023/08/02 03:11:42;;;;;;;4.60;2.20;;;;;;;16.29;100.00;99068.53;178848;1259;46015;-82
2023/08/02 03:15:45;;;;;;;6.30;2.90;;;;;;;16.29;100.00;99077.13;178927;1258;46138;-82
2023/08/02 03:19:48;;;;;;;7.30;2.30;;;;;;;16.28;100.00;99075.27;178762;1259;57992;-82
2023/08/02 03:23:52;;;;;;;5.30;1.90;;;;;;;16.28;100.00;99080.70;178081;1262;44845;-82
2023/08/02 03:27:55;;;;;;;6.20;2.40;;;;;;;16.28;100.00;99081.49;177541;1259;46079;-82
2023/08/02 03:31:59;;;;;;;3.00;2.00;;;;;;;16.29;100.00;99081.83;177221;1260;46165;-82
2023/08/02 03:36:02;;;;;;;3.90;1.90;;;;;;;16.31;100.00;99076.77;177694;1259;46122;-82
2023/08/02 03:40:05;;;;;;;2.40;2.10;;;;;;;16.32;100.00;99079.48;178132;1259;59876;-82
2023/08/02 03:44:09;;;;;;;5.40;2.80;;;;;;;16.35;100.00;99086.20;177286;1259;46006;-83
2023/08/02 03:48:12;;;;;;;2.10;1.90;;;;;;;16.40;100.00;99084.32;178892;1262;45968;-83
2023/08/02 03:52:15;;;;;;;4.40;2.00;;;;;;;16.53;100.00;99079.55;178724;1259;43442;-82
2023/08/02 03:56:18;;;;;;;5.60;2.10;;;;;;;16.65;100.00;99077.33;178368;1259;45964;-81
2023/08/02 04:00:21;;;;;;;3.30;1.80;;;;;;;16.73;100.00;99078.30;178490;1259;58098;-83
2023/08/02 04:04:24;;;;;;;5.40;2.00;;;;;;;16.86;100.00;99082.32;178228;1259;45265;-83
2023/08/02 04:08:27;;;;;;;4.70;2.10;;;;;;;16.98;100.00;99075.79;178383;1260;46571;-83
2023/08/02 04:12:30;;;;;;;2.40;1.90;;;;;;;17.14;100.00;99076.31;177248;1259;46091;-82
2023/08/02 04:16:33;;;;;;;3.10;2.40;;;;;;;17.21;100.00;99073.11;177492;1262;46083;-82
2023/08/02 04:20:40;;;;;;;2.60;1.80;;;;;;;17.11;100.00;99072.91;177676;1259;59545;-83
2023/08/02 04:24:43;;;;;;;2.60;1.60;;;;;;;17.03;100.00;99076.30;178374;1260;45974;-83
2023/08/02 04:28:47;;;;;;;5.60;2.50;;;;;;;17.21;100.00;99071.55;179237;1259;46004;-83
2023/08/02 04:32:51;;;;;;;4.00;1.80;;;;;;;17.89;100.00;99068.55;178380;1259;45972;-82
2023/08/02 04:36:54;;;;;;;6.70;2.20;;;;;;;19.06;100.00;99071.23;178127;1257;46125;-82
2023/08/02 04:40:57;;;;;;;2.40;2.00;;;;;;;20.14;97.78;99070.62;178496;1259;59721;-82
2023/08/02 04:45:00;;;;;;;13.30;3.40;;;;;;;21.17;92.02;99072.17;178703;1259;45991;-83
2023/08/02 04:49:03;;;;;;;8.30;2.20;;;;;;;22.10;85.62;99067.38;178955;1260;45910;-83
2023/08/02 04:53:07;;;;;;;3.40;1.50;;;;;;;22.47;82.70;99075.08;179100;1259;43975;-83
2023/08/02 04:57:10;;;;;;;5.50;2.30;;;;;;;22.70;80.22;99073.13;180209;1259;45846;-82
2023/08/02 05:01:13;;;;;;;4.10;1.90;;;;;;;23.32;78.52;99069.02;179543;1259;57911;-82
2023/08/02 05:05:16;;;;;;;4.50;1.40;;;;;;;23.20;74.89;99075.71;179547;1259;44345;-82
2023/08/02 05:09:20;;;;;;;5.30;2.90;;;;;;;22.73;76.34;99076.63;179571;1260;44882;-83
2023/08/02 05:13:24;;;;;;;4.90;1.80;;;;;;;22.38;78.62;99077.67;179554;1261;46013;-83
2023/08/02 05:17:29;;;;;;;2.50;1.40;;;;;;;22.54;81.49;99073.17;179232;1257;256020;-82
2023/08/02 05:21:33;;;;;;;3.30;2.30;;;;;;;22.93;80.71;99080.59;179302;1259;59472;-82
2023/08/02 05:25:36;;;;;;;2.60;1.20;;;;;;;22.68;79.78;99080.66;179598;1260;46008;-82
2023/08/02 05:29:39;;;;;;;6.00;1.60;;;;;;;22.37;80.37;99077.05;179191;1262;45981;-83
2023/08/02 05:33:42;;;;;;;4.20;1.70;;;;;;;22.16;82.05;99077.55;179360;1257;44700;-82
2023/08/02 05:37:45;;;;;;;2.30;1.70;;;;;;;21.93;83.11;99081.85;179283;1258;46052;-82
2023/08/02 05:41:48;;;;;;;4.40;1.90;;;;;;;21.71;84.24;99089.30;179017;1262;57901;-82
2023/08/02 05:45:52;;;;;;;3.60;1.70;;;;;;;21.43;84.61;99087.96;179219;1259;45466;-83
2023/08/02 05:49:56;;;;;;;8.40;2.30;;;;;;;21.19;86.11;99091.93;179175;1260;45927;-82
2023/08/02 05:53:59;;;;;;;5.10;2.60;;;;;;;21.03;87.72;99099.30;178956;1258;45256;-82
2023/08/02 05:58:03;;;;;;;3.20;1.90;;;;;;;20.91;89.15;99096.02;178919;1263;46373;-82
2023/08/02 06:02:07;;;;;;;4.40;1.40;;;;;;;20.89;91.48;99098.39;178762;1262;57947;-81
2023/08/02 06:06:10;;;;;;;8.30;2.00;;;;;;;21.03;92.55;99093.14;178712;1260;46863;-82
2023/08/02 06:10:13;;;;;;;6.20;2.40;;;;;;;21.22;92.08;99092.53;178789;1256;45920;-83
2023/08/02 06:14:16;;;;;;;2.50;1.70;;;;;;;21.40;90.56;99091.98;179109;1259;46069;-81
2023/08/02 06:18:19;;;;;;;5.20;1.50;;;;;;;21.51;86.59;99091.89;178780;1258;47547;-82
2023/08/02 06:22:22;;;;;;;3.30;1.10;;;;;;;21.53;84.92;99088.76;179098;1262;60519;-82
2023/08/02 06:26:27;;;;;;;6.30;1.20;;;;;;;21.49;85.59;99097.23;179051;1261;45961;-82
2023/08/02 06:30:30;;;;;;;2.30;2.00;;;;;;;21.52;86.65;99091.31;178833;1262;46083;-82
2023/08/02 06:34:34;;;;;;;3.00;0.60;;;;;;;21.75;88.01;99082.71;178879;1260;45985;-82
2023/08/02 06:38:37;;;;;;;5.40;1.40;;;;;;;22.12;85.27;99072.86;179099;1259;45966;-82
2023/08/02 06:42:40;;;;;;;3.30;1.50;;;;;;;22.73;85.06;99068.30;178945;1259;58297;-82
2023/08/02 06:46:43;;;;;;;2.50;1.90;;;;;;;23.36;81.02;99073.65;179042;1261;45995;-81
2023/08/02 06:50:47;;;;;;;3.20;1.60;;;;;;;23.99;78.73;99078.61;179479;1262;46092;-82
2023/08/02 06:54:53;;;;;;;1.80;1.30;;;;;;;24.34;73.12;99063.03;179599;1259;45976;-82
2023/08/02 06:58:57;;;;;;;3.00;1.00;;;;;;;24.63;70.26;99052.54;179691;1261;45496;-83
2023/08/02 07:03:01;;;;;;;4.80;1.40;;;;;;;24.94;69.54;99041.59;179512;1257;59516;-83
2023/08/02 07:07:05;;;;;;;2.60;1.00;;;;;;;25.21;69.75;99049.34;179559;1262;46013;-82
2023/08/02 07:11:09;;;;;;;2.10;1.20;;;;;;;25.45;67.50;99049.53;179913;1256;46021;-82
2023/08/02 07:15:18;;;;;;;4.60;1.40;;;;;;;25.57;64.81;99039.60;179765;1260;45949;-82
2023/08/02 07:19:21;;;;;;;1.90;1.30;;;;;;;25.95;66.29;99035.63;179942;1260;44785;-82
2023/08/02 07:23:24;;;;;;;4.70;1.20;;;;;;;25.96;64.79;99029.80;179842;1258;59488;-82
2023/08/02 07:27:27;;;;;;;3.50;1.10;;;;;;;25.96;65.08;99040.54;180200;1258;46067;-82
2023/08/02 07:31:31;;;;;;;2.10;1.20;;;;;;;26.02;65.00;99042.33;179992;1260;44098;-82
2023/08/02 07:35:37;;;;;;;2.30;1.20;;;;;;;25.88;65.35;99035.08;179853;1260;44560;-82
2023/08/02 07:39:41;;;;;;;3.30;1.50;;;;;;;25.77;65.64;99041.77;179793;1261;46353;-82
2023/08/02 07:43:45;;;;;;;6.50;1.20;;;;;;;25.83;64.21;99040.52;179953;1260;57923;-83
2023/08/02 07:47:48;;;;;;;4.60;1.30;;;;;;;26.06;64.11;99038.72;179887;1257;44620;-83
2023/08/02 07:51:53;;;;;;;2.40;1.20;;;;;;;25.99;59.76;99040.82;180082;1258;44642;-81
2023/08/02 07:56:01;;;;;;;3.50;1.10;;;;;;;25.41;59.98;99048.27;179956;1257;44246;-83
2023/08/02 08:00:05;;;;;;;3.00;0.60;;;;;;;25.00;60.66;99043.58;179729;1259;44316;-82
2023/08/02 08:04:09;;;;;;;1.90;0.70;;;;;;;24.56;61.78;99049.79;179781;1258;58099;-82
2023/08/02 08:08:13;;;;;;;2.00;1.00;;;;;;;24.48;63.57;99045.04;179356;1261;44827;-83
2023/08/02 08:12:16;;;;;;;2.40;1.40;;;;;;;24.82;65.59;99032.83;179480;1261;46007;-82
2023/08/02 08:16:20;;;;;;;3.30;1.20;;;;;;;25.17;63.95;99030.19;179584;1260;46086;-82
2023/08/02 08:20:23;;;;;;;4.40;0.90;;;;;;;25.34;63.72;99032.02;179405;1260;44150;-82
2023/08/02 08:24:27;;;;;;;9.40;2.00;;;;;;;25.71;62.88;99038.55;179373;1260;57956;-82
2023/08/02 08:28:30;;;;;;;3.10;1.00;;;;;;;25.87;60.10;99030.33;179558;1264;46730;-83
2023/08/02 08:32:34;;;;;;;5.60;1.50;;;;;;;25.67;59.32;99031.59;179440;1260;43835;-83
2023/08/02 08:36:37;;;;;;;1.80;0.80;;;;;;;25.71;60.01;99022.81;179570;1260;46005;-83
2023/08/02 08:40:40;;;;;;;12.10;1.10;;;;;;;25.63;59.79;99023.27;179292;1260;43852;-82
2023/08/02 08:44:44;;;;;;;2.40;0.80;;;;;;;25.43;60.30;99019.50;179601;1260;58013;-83
2023/08/02 08:48:48;;;;;;;2.30;1.20;;;;;;;25.34;61.60;99016.34;179311;1261;46651;-83
2023/08/02 08:52:55;;;;;;;3.30;1.00;;;;;;;25.47;62.80;99016.63;179361;1264;46025;-83
2023/08/02 08:57:04;;;;;;;2.50;0.70;;;;;;;25.63;61.17;99018.76;179548;1260;46041;-82
2023/08/02 09:01:07;;;;;;;1.10;0.70;;;;;;;25.74;60.09;99010.55;179591;1260;46012;-83
2023/08/02 09:05:11;;;;;;;8.00;2.10;;;;;;;25.89;60.85;99000.48;179618;1260;59558;-83
2023/08/02 09:09:15;;;;;;;1.10;0.60;;;;;;;25.90;58.69;98994.72;179535;1260;45977;-83
2023/08/02 09:13:26;;;;;;;5.70;2.00;;;;;;;25.88;60.05;98999.23;179422;1261;43824;-83
2023/08/02 09:17:48;;;;;;;2.60;1.20;;;;;;;25.74;59.18;98998.88;179520;1261;46034;-83
2023/08/02 09:22:13;;;;;;;2.30;0.70;;;;;;;25.65;60.37;99004.63;179670;1260;46096;-82
2023/08/02 09:26:18;;;;;;;0.90;0.70;;;;;;;25.66;60.89;99006.59;179546;1260;58223;-83
2023/08/02 09:30:26;;;;;;;;;;;;;;;25.65;61.26;99006.26;179709;1260;46060;-82
2023/08/02 09:34:42;;;;;;;1.80;1.40;;;;;;;25.75;60.99;98993.23;179702;1260;43204;-83
2023/08/02 09:38:54;;;;;;;2.40;0.80;;;;;;;25.87;59.83;98987.50;179595;1260;44785;-82
2023/08/02 09:42:58;;;;;;;1.30;1.00;;;;;;;25.91;59.80;98984.43;179499;1264;46034;-83
2023/08/02 09:47:12;;;;;;;2.00;0.70;;;;;;;25.79;59.64;98986.18;179754;1260;57941;-82
2023/08/02 09:51:15;;;;;;;3.80;1.30;;;;;;;25.75;59.03;98981.67;179623;1261;43901;-82
2023/08/02 09:55:19;;;;;;;2.90;1.50;;;;;;;25.82;60.17;98973.45;179552;1260;45820;-83
2023/08/02 09:59:28;;;;;;;2.40;1.00;;;;;;;26.05;60.63;98971.80;179456;1260;46117;-82
2023/08/02 10:03:32;;;;;;;3.10;0.90;;;;;;;26.14;57.90;98964.61;179614;1262;46038;-83
2023/08/02 10:07:47;;;;;;;;;;;;;;;26.14;59.35;98961.96;179897;1258;58302;-82
2023/08/02 10:11:53;;;;;;;2.20;0.90;;;;;;;26.11;60.44;98955.60;179928;1258;45343;-83
2023/08/02 10:15:59;;;;;;;3.40;1.00;;;;;;;26.10;60.26;98951.51;179849;1259;44002;-83
2023/08/02 10:20:04;;;;;;;5.60;1.20;;;;;;;26.17;58.19;98946.77;179784;1258;46094;-83
2023/08/02 10:24:09;;;;;;;2.70;1.10;;;;;;;26.01;56.88;98939.94;179768;1261;45995;-82
2023/08/02 10:28:13;;;;;;;1.20;0.60;;;;;;;25.98;57.95;98939.21;179698;1262;58252;-83
2023/08/02 10:32:18;;;;;;;0.90;0.80;;;;;;;25.99;58.45;98939.02;179611;1258;46007;-82
2023/08/02 10:36:23;;;;;;;3.00;0.80;;;;;;;26.07;58.48;98935.03;179774;1259;45956;-82
2023/08/02 10:41:05;;;;;;;3.70;1.00;;;;;;;26.16;59.10;98927.22;179875;1257;46000;-83
2023/08/02 10:45:12;;;;;;;2.10;0.70;;;;;;;26.27;57.01;98921.77;180044;1260;46111;-82
2023/08/02 10:49:19;;;;;;;3.50;0.50;;;;;;;26.50;55.26;98918.31;179973;1256;59299;-82
2023/08/02 10:53:22;;;;;;;3.60;0.50;;;;;;;26.75;55.72;98907.75;180107;1259;44109;-83
2023/08/02 10:57:26;;;;;;;1.10;0.50;;;;;;;27.19;57.29;98897.85;179881;1258;45945;-83
2023/08/02 11:01:29;;;;;;;1.70;0.80;;;;;;;27.62;55.03;98888.25;179918;1259;46042;-84
2023/08/02 11:05:36;;;;;;;2.10;0.40;;;;;;;27.77;54.07;98892.73;179902;1260;43519;-84
2023/08/02 11:09:40;;;;;;;3.80;0.40;;;;;;;27.82;54.04;98888.90;180433;1257;58009;-83
2023/08/02 11:13:44;;;;;;;3.90;1.20;;;;;;;27.73;53.63;98889.95;179873;1257;45959;-83
2023/08/02 11:17:54;;;;;;;2.70;1.10;;;;;;;27.68;53.81;98881.64;179919;1257;45318;-83
2023/08/02 11:22:01;;;;;;;1.90;0.80;;;;;;;27.75;54.06;98880.21;180064;1258;45093;-83
2023/08/02 11:26:07;;;;;;;1.00;0.80;;;;;;;27.95;54.45;98871.12;180014;1258;46348;-83
2023/08/02 11:30:20;;;;;;;1.70;1.30;;;;;;;27.99;52.52;98863.69;180085;1256;58257;-83
2023/08/02 11:34:29;;;;;;;1.20;0.60;;;;;;;27.94;54.14;98861.57;180091;1257;46549;-83
2023/08/02 11:38:33;;;;;;;8.40;1.20;;;;;;;28.16;56.24;98853.98;179973;1257;44334;-83
2023/08/02 11:42:51;;;;;;;0.90;0.50;;;;;;;28.38;56.67;98846.77;180121;1257;45883;-82
2023/08/02 11:46:57;;;;;;;1.80;1.40;;;;;;;28.79;54.46;98834.16;180067;1260;43517;-83
2023/08/02 11:51:02;;;;;;;1.30;0.70;;;;;;;28.84;54.02;98825.23;180189;1257;58053;-83
2023/08/02 11:55:06;;;;;;;0.60;0.60;;;;;;;28.86;54.76;98821.38;180048;1260;44253;-83
2023/08/02 11:59:11;;;;;;;1.40;0.60;;;;;;;28.88;53.42;98821.98;179979;1258;46048;-83
2023/08/02 12:03:15;;;;;;;1.20;0.90;;;;;;;28.85;53.22;98816.30;180119;1260;44073;-83
2023/08/02 12:07:31;;;;;;;3.00;0.90;;;;;;;28.93;52.41;98812.43;180245;1256;44994;-83
2023/08/02 12:11:35;;;;;;;0.60;0.40;;;;;;;28.89;52.35;98805.34;180366;1259;59653;-83
2023/08/02 12:15:39;;;;;;;1.00;0.40;;;;;;;28.78;51.12;98802.00;180114;1256;46175;-83
2023/08/02 12:19:43;;;;;;;1.70;0.50;;;;;;;28.50;52.34;98806.02;180003;1256;45915;-83
2023/08/02 12:23:51;;;;;;;1.80;1.00;;;;;;;28.47;52.53;98798.81;180142;1259;43496;-83
2023/08/02 12:28:06;;;;;;;3.40;0.90;;;;;;;28.51;52.26;98793.23;180130;1260;44357;-83
2023/08/02 12:32:11;;;;;;;1.70;0.50;;;;;;;28.50;53.50;98786.93;180217;1257;59141;-84
2023/08/02 12:36:26;;;;;;;1.70;0.80;;;;;;;28.43;52.83;98782.53;180205;1260;45984;-82
2023/08/02 12:40:30;;;;;;;5.50;1.00;;;;;;;28.49;54.05;98787.81;179925;1257;46046;-83
2023/08/02 12:44:34;;;;;;;3.00;1.10;;;;;;;28.55;53.34;98784.02;180296;1259;44336;-83
2023/08/02 12:48:37;;;;;;;1.50;0.60;;;;;;;28.45;53.81;98787.56;179889;1260;45996;-83
2023/08/02 12:52:42;;;;;;;8.00;1.70;;;;;;;28.43;52.94;98788.50;180073;1260;61036;-83
2023/08/02 12:56:45;;;;;;;2.20;1.20;;;;;;;28.37;53.24;98781.80;180034;1258;43759;-83
2023/08/02 13:00:51;;;;;;;1.50;1.00;;;;;;;27.94;52.22;98771.17;180023;1259;44085;-83
2023/08/02 13:04:54;;;;;;;3.60;0.70;;;;;;;27.87;54.07;98772.08;180182;1258;44679;-83
2023/08/02 13:08:58;;;;;;;2.00;0.70;;;;;;;27.81;52.71;98771.87;179999;1256;44601;-83
2023/08/02 13:13:03;;;;;;;1.70;0.80;;;;;;;27.60;53.06;98758.74;179960;1262;59195;-83
2023/08/02 13:17:07;;;;;;;1.50;1.10;;;;;;;27.44;54.37;98746.09;180064;1256;45959;-83
2023/08/02 13:21:10;;;;;;;2.00;1.10;;;;;;;27.31;54.48;98742.11;179890;1256;46067;-82
2023/08/02 13:25:15;;;;;;;4.10;1.20;;;;;;;27.23;56.37;98743.71;179978;1256;44119;-83
2023/08/02 13:29:20;;;;;;;2.80;1.20;;;;;;;27.12;55.32;98750.42;180021;1256;44495;-83
2023/08/02 13:33:26;;;;;;;1.10;1.00;;;;;;;27.11;55.91;98746.83;179863;1258;56956;-83
2023/08/02 13:37:33;;;;;;;2.70;1.10;;;;;;;27.10;55.73;98731.11;179942;1259;45256;-83
2023/08/02 13:41:36;;;;;;;2.60;0.60;;;;;;;27.05;55.39;98724.23;180015;1257;46145;-83
2023/08/02 13:45:41;;;;;;;5.50;1.50;;;;;;;27.08;56.29;98725.48;180060;1258;45891;-83
2023/08/02 13:49:47;;;;;;;3.10;1.20;;;;;;;26.93;55.88;98724.56;179873;1259;43783;-84
2023/08/02 13:53:51;;;;;;;4.30;1.20;;;;;;;26.89;56.41;98718.94;180252;1259;58178;-83
2023/08/02 13:57:58;;;;;;;1.30;1.20;;;;;;;26.89;54.84;98720.95;180461;1259;44389;-83
2023/08/02 14:02:02;;;;;;;8.00;1.70;;;;;;;26.90;56.15;98721.94;180172;1259;44205;-83
2023/08/02 14:06:06;;;;;;;2.10;1.50;;;;;;;26.89;54.31;98716.20;180285;1259;46025;-82
2023/08/02 14:10:11;;;;;;;6.10;2.40;;;;;;;26.87;54.85;98704.64;180270;1258;45151;-83
2023/08/02 14:14:16;;;;;;;2.10;1.20;;;;;;;26.82;54.85;98705.83;179904;1254;58542;-88
2023/08/02 14:18:20;;;;;;;2.00;1.20;;;;;;;26.76;56.59;98694.20;178631;1258;45978;-88
2023/08/02 14:22:24;;;;;;;4.80;1.50;;;;;;;26.76;55.84;98683.41;178544;1257;45980;-88
2023/08/02 14:26:27;;;;;;;3.40;1.90;;;;;;;26.85;55.57;98685.05;178841;1257;46170;-88
2023/08/02 14:30:31;;;;;;;11.60;2.00;;;;;;;26.76;54.71;98677.77;179071;1257;43980;-88
2023/08/02 14:34:35;;;;;;;1.10;0.90;;;;;;;26.70;55.64;98664.96;178902;1260;59168;-88
2023/08/02 14:38:39;;;;;;;2.00;1.20;;;;;;;26.64;55.32;98655.30;178581;1259;45915;-87
2023/08/02 14:42:44;;;;;;;3.40;1.80;;;;;;;26.55;55.29;98645.16;178631;1259;46023;-88
2023/08/02 14:46:48;;;;;;;3.70;1.70;;;;;;;26.53;55.27;98639.17;178416;1259;46092;-89
2023/08/02 14:50:51;;;;;;;6.90;1.50;;;;;;;26.46;55.35;98634.46;178032;1260;46199;-89
2023/08/02 14:54:55;;;;;;;4.50;1.80;;;;;;;26.37;55.05;98614.50;178114;1258;59561;-88
2023/08/02 14:59:00;;;;;;;5.40;1.70;;;;;;;26.33;54.65;98603.34;177967;1259;46027;-89
2023/08/02 15:03:04;;;;;;;1.20;0.60;;;;;;;26.30;54.92;98601.86;178962;1262;45967;-87
2023/08/02 15:07:08;;;;;;;2.00;1.00;;;;;;;26.13;54.19;98600.08;177998;1258;46107;-87
2023/08/02 15:11:14;;;;;;;1.60;1.10;;;;;;;25.98;54.69;98588.38;178210;1260;45861;-87
2023/08/02 15:15:22;;;;;;;;;;;;;;;25.92;55.08;98581.01;178031;1259;59456;-89
2023/08/02 15:19:26;;;;;;;3.80;1.60;;;;;;;25.88;55.06;98569.40;178320;1258;45765;-86
2023/08/02 15:23:32;;;;;;;5.00;0.80;;;;;;;25.87;55.69;98569.89;178723;1259;46041;-88
2023/08/02 15:27:37;;;;;;;8.00;2.00;;;;;;;25.76;55.89;98570.35;177993;1262;46083;-88
2023/08/02 15:31:43;;;;;;;1.90;1.00;;;;;;;25.60;55.16;98555.88;178324;1259;46066;-88
2023/08/02 15:35:51;;;;;;;2.10;0.90;;;;;;;25.48;56.61;98558.93;178259;1259;59247;-89
2023/08/02 15:39:58;;;;;;;2.50;1.80;;;;;;;25.38;55.71;98562.08;177893;1258;45876;-88
2023/08/02 15:44:03;;;;;;;;;;;;;;;25.31;55.38;98567.44;177990;1258;45241;-89
2023/08/02 15:48:07;;;;;;;3.80;2.30;;;;;;;25.18;55.83;98565.27;178029;1259;44432;-88
2023/08/02 15:52:15;;;;;;;1.90;1.10;;;;;;;25.07;56.87;98564.61;179096;1258;45982;-90
2023/08/02 15:56:36;;;;;;;2.40;1.10;;;;;;;25.03;58.05;98553.05;178594;1257;59182;-89
2023/08/02 16:00:40;;;;;;;3.50;1.00;;;;;;;24.97;58.33;98548.30;178674;1259;46084;-90
2023/08/02 16:04:43;;;;;;;8.50;1.70;;;;;;;24.94;57.15;98545.54;179527;1259;45075;-90
2023/08/02 16:13:23;;;;;;;1.80;1.30;;;;;;;24.90;57.66;98528.52;163219;1261;46001;-65
2023/08/02 16:17:26;;;;;;;5.50;2.70;;;;;;;24.84;57.88;98520.65;180063;1260;58123;-64
2023/08/02 16:21:29;;;;;;;19.30;3.30;;;;;;;24.70;58.00;98519.94;180134;1260;44912;-64
2023/08/02 16:25:33;;;;;;;7.30;2.20;;;;;;;24.54;58.51;98528.21;180017;1261;43735;-66
2023/08/02 16:29:37;;;;;;;8.20;3.80;;;;;;;24.32;59.59;98534.66;179882;1261;44714;-65
2023/08/02 16:33:41;;;;;;;3.80;2.50;;;;;;;24.16;60.04;98537.30;180226;1260;45934;-67
2023/08/02 16:37:44;;;;;;;4.00;1.20;;;;;;;24.01;64.06;98533.03;180099;1260;57849;-64
2023/08/02 16:41:47;;;;;;;2.00;1.10;;;;;;;23.78;68.02;98537.90;179954;1261;43654;-66
2023/08/02 16:45:54;;;;;;;1.40;0.90;;;;;;;23.59;71.23;98540.41;179940;1260;45977;-66
2023/08/02 16:49:57;;;;;;;2.70;1.40;;;;;;;23.42;73.86;98552.42;180055;1260;44002;-66
2023/08/02 16:54:01;;;;;;;2.00;1.00;;;;;;;23.26;75.57;98561.45;180278;1260;45517;-66
2023/08/02 16:58:06;;;;;;;1.30;0.70;;;;;;;23.06;77.16;98571.15;180194;1259;58515;-66
2023/08/02 17:02:09;;;;;;;1.50;0.80;;;;;;;22.89;78.75;98574.33;180214;1261;43786;-66
2023/08/02 17:06:39;;;;;;;1.60;1.20;;;;;;;22.77;79.53;98576.79;180170;1261;45998;-66
2023/08/02 17:10:43;;;;;;;4.50;0.80;;;;;;;22.54;82.29;98588.59;180262;1258;43779;-66
2023/08/02 17:14:48;;;;;;;3.40;1.00;;;;;;;22.36;83.88;98586.85;179955;1260;264761;-64
2023/08/02 17:18:52;;;;;;;1.00;0.80;;;;;;;22.19;85.55;98593.67;180254;1263;58176;-66
2023/08/02 17:22:55;;;;;;;0.50;0.50;;;;;;;22.11;86.81;98601.76;179098;1260;91137;-90
2023/08/02 17:26:59;;;;;;;2.20;0.80;;;;;;;22.03;87.75;98603.63;178497;1264;46153;-89
2023/08/02 17:31:02;;;;;;;1.50;1.00;;;;;;;21.96;89.40;98600.02;177386;1260;46101;-88
2023/08/02 17:35:06;;;;;;;1.00;0.60;;;;;;;21.90;90.25;98604.46;177453;1260;45943;-89
2023/08/02 17:39:09;;;;;;;1.90;1.30;;;;;;;21.85;91.88;98594.79;177782;1260;58242;-89
2023/08/02 17:43:13;;;;;;;3.50;1.50;;;;;;;21.82;92.92;98592.90;177997;1261;44691;-89
2023/08/02 17:47:17;;;;;;;1.60;1.00;;;;;;;21.77;94.78;98597.45;177623;1260;45997;-89
2023/08/02 17:51:21;;;;;;;9.00;4.30;;;;;;;21.71;95.96;98596.79;177719;1259;45952;-89
2023/08/02 17:55:25;;;;;;;21.40;11.00;;;;;;;21.70;96.06;98588.06;178169;1260;46001;-88
2023/08/02 17:59:28;;;;;;;28.10;16.90;;;;;;;21.66;97.11;98574.66;178373;1263;57766;-89
2023/08/02 18:03:32;;;;;;;17.40;12.70;;;;;;;21.59;97.77;98568.21;178514;1261;46130;-88
2023/08/02 18:07:35;;;;;;;9.40;5.30;;;;;;;21.51;98.95;98562.17;178538;1261;43988;-89
2023/08/02 18:11:39;;;;;;;4.10;2.40;;;;;;;21.45;98.82;98556.80;179115;1260;45544;-89
2023/08/02 18:15:43;;;;;;;5.70;3.40;;;;;;;21.39;98.85;98554.30;178851;1260;45966;-89
2023/08/02 18:19:47;;;;;;;15.40;7.40;;;;;;;21.37;99.35;98547.09;178566;1260;59809;-89
2023/08/02 18:23:50;;;;;;;9.10;4.00;;;;;;;21.24;100.00;98533.02;178170;1260;46007;-90
2023/08/02 18:27:54;;;;;;;9.60;6.70;;;;;;;21.05;100.00;98521.66;177649;1260;46090;-88
2023/08/02 18:31:57;;;;;;;6.30;4.30;;;;;;;20.90;100.00;98497.83;177603;1261;46015;-89
2023/08/02 18:36:12;;;;;;;4.30;2.30;;;;;;;20.64;100.00;98467.90;177579;1260;46096;-89
2023/08/02 18:40:18;;;;;;;2.10;1.10;;;;;;;20.36;100.00;98406.95;178530;1260;58434;-89
2023/08/02 18:44:22;;;;;;;6.60;1.60;;;;;;;20.21;100.00;98342.50;177337;1259;45961;-89
2023/08/02 18:48:26;;;;;;;1.70;1.50;;;;;;;20.07;100.00;98322.86;177427;1260;46028;-90
2023/08/02 18:52:33;;;;;;;1.80;1.70;;;;;;;20.08;100.00;98329.23;177602;1261;46094;-90
2023/08/02 18:56:37;;;;;;;7.60;2.10;;;;;;;20.19;100.00;98380.08;177493;1259;46072;-91
2023/08/02 19:00:44;;;;;;;2.50;1.30;;;;;;;20.27;100.00;98459.61;178282;1260;58598;-91